Time;durP1;ratioP1;P1;durP2;ratioP2;P2;SDS_P1;SDS_P2;PMS_P1;PMS_P2;Temp;Humidity;BMP_temperature;BMP_pressure;BME280_temperature;BME280_humidity;BME280_pressure;Samples;Min_cycle;Max_cycle;Signal;HPM_P1;HPM_P2
2021/03/16 00:01:42;;;;;;;61.97;58.88;;;6.80;99.90;;;;;;5005615;28;20413;-71
2021/03/16 00:04:09;;;;;;;54.03;51.42;;;6.80;99.90;;;;;;5006467;28;20050;-71
2021/03/16 00:06:36;;;;;;;54.95;51.88;;;6.80;99.90;;;;;;5004225;28;20529;-71
2021/03/16 00:09:02;;;;;;;59.55;56.42;;;6.80;99.90;;;;;;5005110;28;20052;-71
2021/03/16 00:11:28;;;;;;;72.80;69.32;;;6.80;99.90;;;;;;5002931;28;20513;-71
2021/03/16 00:13:54;;;;;;;80.35;76.45;;;6.80;99.90;;;;;;5004922;28;20050;-71
2021/03/16 00:16:20;;;;;;;97.13;92.28;;;6.80;99.90;;;;;;5003256;28;20125;-71
2021/03/16 00:18:47;;;;;;;94.65;90.07;;;6.80;99.90;;;;;;5004479;28;20066;-71
2021/03/16 00:21:13;;;;;;;103.05;97.97;;;6.80;99.90;;;;;;5006382;28;20082;-71
2021/03/16 00:23:39;;;;;;;98.72;93.88;;;6.70;99.90;;;;;;5006488;28;20069;-70
2021/03/16 00:26:06;;;;;;;100.68;95.72;;;6.70;99.90;;;;;;5017170;28;20113;-71
2021/03/16 00:28:32;;;;;;;106.90;101.82;;;6.70;99.90;;;;;;5002917;28;20046;-71
2021/03/16 00:30:59;;;;;;;107.68;102.10;;;6.70;99.90;;;;;;5005633;28;20192;-71
2021/03/16 00:33:25;;;;;;;101.00;96.40;;;6.70;99.90;;;;;;5003396;28;20088;-71
2021/03/16 00:35:52;;;;;;;96.32;91.78;;;6.70;99.90;;;;;;5002899;28;20158;-71
2021/03/16 00:38:18;;;;;;;70.55;67.18;;;6.70;99.90;;;;;;5004269;28;20046;-71
2021/03/16 00:40:45;;;;;;;73.95;70.40;;;6.70;99.90;;;;;;5015296;28;20046;-71
2021/03/16 00:43:11;;;;;;;72.05;68.55;;;6.70;99.90;;;;;;5008855;28;20045;-71
2021/03/16 00:45:37;;;;;;;71.35;67.82;;;6.60;99.90;;;;;;5001807;28;20140;-71
2021/03/16 00:48:04;;;;;;;84.88;80.57;;;6.60;99.90;;;;;;5005722;28;20044;-71
2021/03/16 00:50:30;;;;;;;88.50;84.07;;;6.60;99.90;;;;;;5004477;28;20546;-71
2021/03/16 00:52:56;;;;;;;84.82;80.38;;;6.60;99.90;;;;;;5002940;28;20054;-71
2021/03/16 00:55:33;;;;;;;87.53;83.43;;;6.60;99.90;;;;;;5013425;28;20062;-71
2021/03/16 00:57:59;;;;;;;85.00;80.88;;;6.60;99.90;;;;;;5019030;28;21005;-71
2021/03/16 01:00:26;;;;;;;99.65;94.68;;;6.70;99.90;;;;;;5009055;28;20053;-71
2021/03/16 01:02:52;;;;;;;101.72;96.75;;;6.70;99.90;;;;;;5012290;28;20038;-71
2021/03/16 01:05:19;;;;;;;71.72;68.18;;;6.70;99.90;;;;;;5008486;28;20059;-71
2021/03/16 01:07:45;;;;;;;67.90;64.75;;;6.70;99.90;;;;;;5006893;28;20088;-71
2021/03/16 01:10:14;;;;;;;42.33;40.35;;;6.70;99.90;;;;;;5004340;28;20463;-71
2021/03/16 01:12:42;;;;;;;48.35;45.90;;;6.60;99.90;;;;;;5005147;28;20161;-70
2021/03/16 01:15:09;;;;;;;47.92;45.70;;;6.60;99.90;;;;;;5005820;28;20456;-71
2021/03/16 01:17:36;;;;;;;56.42;53.50;;;6.60;99.90;;;;;;5011610;28;20053;-71
2021/03/16 01:20:24;;;;;;;54.38;51.47;;;6.60;99.90;;;;;;5004778;28;20365;-70
2021/03/16 01:22:50;;;;;;;57.83;54.78;;;6.60;99.90;;;;;;5004592;28;20473;-71
2021/03/16 01:25:17;;;;;;;57.85;54.80;;;6.60;99.90;;;;;;5006794;28;20441;-71
2021/03/16 01:27:43;;;;;;;63.03;59.92;;;6.60;99.90;;;;;;5012310;28;21054;-71
2021/03/16 01:30:10;;;;;;;64.22;61.05;;;6.60;99.90;;;;;;5010534;28;20141;-71
2021/03/16 01:32:37;;;;;;;65.90;62.65;;;6.60;99.90;;;;;;5007832;28;20475;-71
2021/03/16 01:35:07;;;;;;;68.25;64.85;;;6.60;99.90;;;;;;5007846;28;20045;-71
2021/03/16 01:37:33;;;;;;;65.20;62.15;;;6.60;99.90;;;;;;5007427;28;20135;-71
2021/03/16 01:39:59;;;;;;;67.45;64.07;;;6.60;99.90;;;;;;5007089;28;20140;-71
2021/03/16 01:42:26;;;;;;;67.07;63.85;;;6.60;99.90;;;;;;5004532;28;20469;-71
2021/03/16 01:44:52;;;;;;;69.45;66.07;;;6.60;99.90;;;;;;5004074;28;20123;-71
2021/03/16 01:47:20;;;;;;;71.53;67.78;;;6.60;99.90;;;;;;5007941;28;20128;-71
2021/03/16 01:49:46;;;;;;;64.33;61.23;;;6.60;99.90;;;;;;5006732;28;20077;-71
2021/03/16 01:52:13;;;;;;;65.13;62.08;;;6.60;99.90;;;;;;5004226;28;20058;-71
2021/03/16 01:54:40;;;;;;;64.80;61.75;;;6.60;99.90;;;;;;5006399;28;20070;-71
2021/03/16 01:57:09;;;;;;;56.45;53.80;;;6.60;99.90;;;;;;5004541;28;20124;-71
2021/03/16 01:59:36;;;;;;;50.17;47.67;;;6.60;99.90;;;;;;5002852;28;20066;-71
2021/03/16 02:02:04;;;;;;;48.20;45.80;;;6.60;99.90;;;;;;5004354;28;20137;-71
2021/03/16 02:04:30;;;;;;;50.65;48.00;;;6.60;99.90;;;;;;5009132;28;20050;-71
2021/03/16 02:07:10;;;;;;;52.05;49.45;;;6.60;99.90;;;;;;5005523;28;20037;-71
2021/03/16 02:09:47;;;;;;;49.95;47.67;;;6.60;99.90;;;;;;5003734;28;20054;-71
2021/03/16 02:12:36;;;;;;;50.65;48.28;;;6.60;99.90;;;;;;5004845;28;20065;-71
2021/03/16 02:15:09;;;;;;;;;;;6.60;99.90;;;;;;5110924;27;20492;-71
2021/03/16 02:17:37;;;;;;;47.17;44.78;;;6.60;99.90;;;;;;5009950;28;20333;-71
2021/03/16 02:20:24;;;;;;;55.70;53.13;;;6.60;99.90;;;;;;5008748;28;20132;-71
2021/03/16 02:22:51;;;;;;;56.08;53.30;;;6.60;99.90;;;;;;5005488;28;20484;-71
2021/03/16 02:25:42;;;;;;;57.13;54.50;;;6.60;99.90;;;;;;5008930;28;20083;-71
2021/03/16 02:28:12;;;;;;;56.70;54.05;;;6.60;99.90;;;;;;5008411;28;20042;-71
2021/03/16 02:30:42;;;;;;;57.72;54.97;;;6.60;99.90;;;;;;5009522;28;20049;-71
2021/03/16 02:33:11;;;;;;;65.75;62.25;;;6.60;99.90;;;;;;5006403;28;20067;-71
2021/03/16 02:35:38;;;;;;;;;;;6.60;99.90;;;;;;5007435;28;20160;-71
2021/03/16 02:38:07;;;;;;;55.38;52.72;;;6.60;99.90;;;;;;5004411;28;19928;-71
2021/03/16 02:40:35;;;;;;;58.55;55.70;;;6.60;99.90;;;;;;5004620;28;20101;-71
2021/03/16 02:43:03;;;;;;;55.53;52.93;;;6.60;99.90;;;;;;5009095;28;20133;-71
2021/03/16 02:45:30;;;;;;;62.15;59.05;;;6.70;99.90;;;;;;5003670;28;20074;-71
2021/03/16 02:47:57;;;;;;;61.63;58.75;;;6.70;99.90;;;;;;5008161;28;20099;-71
2021/03/16 02:50:24;;;;;;;53.58;51.08;;;6.70;99.90;;;;;;5010294;28;20450;-71
2021/03/16 02:52:55;;;;;;;62.45;59.42;;;6.60;99.90;;;;;;5001990;28;20042;-70
2021/03/16 02:55:23;;;;;;;66.28;63.17;;;6.70;99.90;;;;;;5005945;28;20133;-70
2021/03/16 02:57:50;;;;;;;68.80;65.57;;;6.70;99.90;;;;;;5007891;28;20042;-71
2021/03/16 03:00:17;;;;;;;69.65;66.18;;;6.70;99.90;;;;;;5006053;28;20161;-71
2021/03/16 03:02:47;;;;;;;79.22;75.20;;;6.70;99.90;;;;;;5002807;28;20042;-71
2021/03/16 03:05:14;;;;;;;72.75;69.25;;;6.70;99.90;;;;;;5017075;28;20057;-71
2021/03/16 03:07:42;;;;;;;70.45;67.10;;;6.70;99.90;;;;;;5005863;28;20481;-71
2021/03/16 03:10:09;;;;;;;76.15;72.35;;;6.70;99.90;;;;;;5096051;27;20442;-72
2021/03/16 03:12:36;;;;;;;75.93;72.25;;;6.70;99.90;;;;;;5009046;28;20061;-71
2021/03/16 03:15:06;;;;;;;71.43;67.97;;;6.70;99.90;;;;;;5022546;28;20049;-71
2021/03/16 03:17:32;;;;;;;68.90;65.35;;;6.70;99.90;;;;;;5002767;28;20151;-71
2021/03/16 03:19:59;;;;;;;71.03;67.55;;;6.70;99.90;;;;;;5006883;28;20049;-71
2021/03/16 03:22:36;;;;;;;70.07;66.60;;;6.60;99.90;;;;;;5011011;28;20050;-71
2021/03/16 03:25:07;;;;;;;63.88;60.63;;;6.60;99.90;;;;;;5005299;28;20092;-71
2021/03/16 03:27:39;;;;;;;53.70;51.20;;;6.60;99.90;;;;;;5014222;28;20067;-71
2021/03/16 03:30:08;;;;;;;39.42;37.58;;;6.60;99.90;;;;;;5007274;28;20048;-71
2021/03/16 03:32:37;;;;;;;28.95;27.50;;;6.60;99.90;;;;;;5007276;28;20053;-71
2021/03/16 03:35:05;;;;;;;52.85;50.17;;;6.50;99.90;;;;;;5015259;28;20358;-71
2021/03/16 03:37:33;;;;;;;55.60;52.78;;;6.50;99.90;;;;;;5007308;28;20103;-71
2021/03/16 03:40:02;;;;;;;56.22;53.40;;;6.50;99.90;;;;;;5009185;28;20126;-71
2021/03/16 03:42:30;;;;;;;54.70;52.03;;;6.50;99.90;;;;;;5006222;28;20046;-71
2021/03/16 03:44:58;;;;;;;61.40;58.00;;;6.50;99.90;;;;;;5005718;28;20045;-71
2021/03/16 03:47:26;;;;;;;57.50;54.60;;;6.50;99.90;;;;;;5000167;28;20046;-71
2021/03/16 03:49:53;;;;;;;55.75;52.95;;;6.50;99.90;;;;;;5002778;28;20129;-71
2021/03/16 03:52:20;;;;;;;53.33;50.78;;;6.50;99.90;;;;;;5003326;28;20895;-71
2021/03/16 03:54:48;;;;;;;54.35;51.78;;;6.50;99.90;;;;;;5002131;28;20054;-71
2021/03/16 03:57:15;;;;;;;54.33;51.63;;;6.50;99.90;;;;;;5002495;28;20506;-71
2021/03/16 03:59:44;;;;;;;50.63;48.22;;;6.50;99.90;;;;;;5007837;28;20058;-71
2021/03/16 04:02:11;;;;;;;;;;;6.50;99.90;;;;;;5004702;28;20046;-71
2021/03/16 04:04:39;;;;;;;45.42;43.13;;;6.50;99.90;;;;;;5005699;28;20261;-71
2021/03/16 04:07:07;;;;;;;46.90;44.58;;;6.50;99.90;;;;;;5004082;28;20041;-71
2021/03/16 04:09:34;;;;;;;45.63;43.50;;;6.50;99.90;;;;;;5004045;28;20064;-71
2021/03/16 04:12:01;;;;;;;43.45;41.35;;;6.50;99.90;;;;;;5005844;28;20048;-71
2021/03/16 04:14:29;;;;;;;42.58;40.47;;;6.50;99.90;;;;;;5003196;28;20049;-71
2021/03/16 04:16:57;;;;;;;40.25;38.25;;;6.50;99.90;;;;;;5005688;28;20128;-71
2021/03/16 04:19:25;;;;;;;36.67;34.97;;;6.50;99.90;;;;;;5003348;28;20042;-71
2021/03/16 04:21:51;;;;;;;37.47;35.67;;;6.40;99.90;;;;;;5005060;28;20133;-71
2021/03/16 04:24:19;;;;;;;37.08;35.38;;;6.40;99.90;;;;;;5002307;28;20156;-71
2021/03/16 04:26:46;;;;;;;36.80;34.90;;;6.40;99.90;;;;;;5015780;28;20053;-71
2021/03/16 04:29:12;;;;;;;37.58;35.85;;;6.40;99.90;;;;;;5005573;28;20104;-71
2021/03/16 04:31:38;;;;;;;62.95;59.67;;;6.40;99.90;;;;;;5007105;28;20050;-71
2021/03/16 04:34:04;;;;;;;49.90;47.53;;;6.40;99.90;;;;;;5005245;28;20087;-71
2021/03/16 04:36:30;;;;;;;45.13;42.88;;;6.40;99.90;;;;;;5004888;28;20142;-71
2021/03/16 04:38:57;;;;;;;46.85;44.55;;;6.40;99.90;;;;;;5006541;28;20141;-71
2021/03/16 04:41:23;;;;;;;47.63;45.15;;;6.40;99.90;;;;;;5003569;28;20392;-71
2021/03/16 04:43:50;;;;;;;46.45;44.30;;;6.30;99.90;;;;;;5007337;28;20095;-71
2021/03/16 04:46:17;;;;;;;45.33;43.25;;;6.30;99.90;;;;;;5005461;28;20117;-71
2021/03/16 04:48:43;;;;;;;45.63;43.40;;;6.30;99.90;;;;;;5009699;28;20125;-71
2021/03/16 04:51:09;;;;;;;44.88;42.47;;;6.30;99.90;;;;;;5010106;28;20077;-71
2021/03/16 04:53:35;;;;;;;49.22;46.85;;;6.30;99.90;;;;;;5005155;28;20065;-71
2021/03/16 04:56:02;;;;;;;46.70;44.45;;;6.30;99.90;;;;;;5007118;28;20399;-71
2021/03/16 04:58:37;;;;;;;39.30;37.35;;;6.30;99.90;;;;;;5001974;28;20042;-71
2021/03/16 05:01:04;;;;;;;43.88;41.58;;;6.30;99.90;;;;;;5001174;28;20041;-70
2021/03/16 05:03:30;;;;;;;39.70;37.78;;;6.30;99.90;;;;;;5004620;28;20056;-71
2021/03/16 05:05:57;;;;;;;44.35;42.15;;;6.30;99.90;;;;;;5006047;28;20482;-71
2021/03/16 05:08:24;;;;;;;49.25;46.78;;;6.30;99.90;;;;;;5003161;28;20049;-71
2021/03/16 05:10:50;;;;;;;42.05;39.78;;;6.30;99.90;;;;;;5003765;28;20128;-71
2021/03/16 05:13:18;;;;;;;41.47;39.45;;;6.30;99.90;;;;;;5003780;28;20064;-71
2021/03/16 05:15:45;;;;;;;43.73;41.43;;;6.30;99.90;;;;;;5006100;28;20045;-71
2021/03/16 05:18:11;;;;;;;44.50;42.30;;;6.30;99.90;;;;;;5005059;28;20133;-71
2021/03/16 05:20:38;;;;;;;45.13;42.78;;;6.30;99.90;;;;;;5011494;28;20047;-71
2021/03/16 05:23:04;;;;;;;44.33;42.13;;;6.20;99.90;;;;;;5003544;28;20535;-71
2021/03/16 05:25:31;;;;;;;43.78;41.63;;;6.20;99.90;;;;;;5002702;28;20046;-71
2021/03/16 05:27:57;;;;;;;48.70;46.20;;;6.20;99.90;;;;;;5011326;28;20039;-71
2021/03/16 05:30:24;;;;;;;50.47;48.05;;;6.20;99.90;;;;;;4991371;28;20418;-71
2021/03/16 05:32:57;;;;;;;55.20;52.33;;;6.20;99.90;;;;;;4999803;28;20056;-70
2021/03/16 05:35:24;;;;;;;53.53;50.97;;;6.20;99.90;;;;;;4994343;28;20052;-71
2021/03/16 05:37:52;;;;;;;54.80;52.08;;;6.20;99.90;;;;;;5001268;28;20081;-71
2021/03/16 05:40:18;;;;;;;61.33;58.38;;;6.20;99.90;;;;;;4992963;28;20069;-71
2021/03/16 05:42:46;;;;;;;62.20;59.13;;;6.20;99.90;;;;;;5004781;28;20050;-70
2021/03/16 05:45:13;;;;;;;58.67;55.85;;;6.20;99.90;;;;;;5001826;28;20088;-71
2021/03/16 05:47:42;;;;;;;58.20;55.42;;;6.20;99.90;;;;;;5009662;28;20044;-71
2021/03/16 05:50:09;;;;;;;60.08;56.83;;;6.20;99.90;;;;;;5002680;28;20050;-71
2021/03/16 05:52:35;;;;;;;59.20;56.00;;;6.20;99.90;;;;;;5002856;28;20061;-71
2021/03/16 05:55:03;;;;;;;59.33;56.28;;;6.20;99.90;;;;;;5006426;28;20148;-71
2021/03/16 05:57:30;;;;;;;59.25;56.38;;;6.20;99.90;;;;;;4998716;28;20060;-71
2021/03/16 05:59:57;;;;;;;56.92;54.17;;;6.20;99.90;;;;;;4997750;28;20042;-71
2021/03/16 06:02:23;;;;;;;53.03;50.35;;;6.20;99.90;;;;;;5004109;28;20042;-71
2021/03/16 06:04:49;;;;;;;53.80;51.22;;;6.20;99.90;;;;;;5002040;28;20054;-71
2021/03/16 06:07:16;;;;;;;56.83;53.85;;;6.20;99.90;;;;;;5010688;28;20389;-70
2021/03/16 06:09:43;;;;;;;55.08;52.38;;;6.20;99.90;;;;;;5006280;28;20053;-71
2021/03/16 06:12:10;;;;;;;55.72;53.08;;;6.30;99.90;;;;;;5097742;27;20054;-71
2021/03/16 06:14:49;;;;;;;56.85;54.05;;;6.30;99.90;;;;;;5003982;28;20473;-71
2021/03/16 06:17:15;;;;;;;59.35;56.55;;;6.30;99.90;;;;;;5005488;28;20087;-71
2021/03/16 06:19:42;;;;;;;55.05;52.33;;;6.30;99.90;;;;;;4998770;28;20979;-71
2021/03/16 06:22:08;;;;;;;55.55;52.85;;;6.30;99.90;;;;;;5000512;28;20145;-71
2021/03/16 06:24:45;;;;;;;58.10;55.28;;;6.40;99.90;;;;;;5003287;28;20512;-71
2021/03/16 06:27:27;;;;;;;56.28;53.72;;;6.40;99.90;;;;;;4997669;28;20129;-71
2021/03/16 06:29:54;;;;;;;61.60;58.63;;;6.40;99.90;;;;;;4993994;28;20130;-71
2021/03/16 06:32:20;;;;;;;63.92;60.72;;;6.50;99.90;;;;;;5001874;28;20144;-71
2021/03/16 06:34:58;;;;;;;72.55;69.05;;;6.50;99.90;;;;;;5002720;28;20093;-71
2021/03/16 06:37:24;;;;;;;74.07;70.57;;;6.50;99.90;;;;;;5007726;28;20137;-71
2021/03/16 06:39:54;;;;;;;71.55;68.13;;;6.60;99.90;;;;;;5004402;28;20047;-71
2021/03/16 06:42:21;;;;;;;69.70;66.38;;;6.60;99.90;;;;;;4999278;28;20138;-71
2021/03/16 06:44:58;;;;;;;66.65;63.35;;;6.60;99.90;;;;;;5090244;27;20064;-71
2021/03/16 06:47:24;;;;;;;63.42;60.33;;;6.60;99.90;;;;;;4990912;28;20050;-71
2021/03/16 06:49:51;;;;;;;67.88;64.70;;;6.70;99.90;;;;;;4987084;28;20064;-71
2021/03/16 06:52:17;;;;;;;47.67;45.15;;;6.70;99.90;;;;;;4986768;28;20408;-71
2021/03/16 06:54:44;;;;;;;64.05;60.85;;;6.70;99.90;;;;;;4993389;28;20092;-71
2021/03/16 06:57:12;;;;;;;61.40;58.33;;;6.80;99.90;;;;;;4997476;28;20057;-71
2021/03/16 06:59:39;;;;;;;66.47;62.78;;;6.80;99.90;;;;;;4998088;28;20462;-71
2021/03/16 07:02:12;;;;;;;61.63;58.30;;;6.80;99.90;;;;;;5001668;28;20050;-71
2021/03/16 07:04:44;;;;;;;54.95;52.15;;;6.80;99.90;;;;;;5005477;28;20046;-71
2021/03/16 07:07:11;;;;;;;62.47;58.97;;;6.80;99.90;;;;;;5002047;28;20102;-71
2021/03/16 07:09:38;;;;;;;69.13;65.63;;;6.90;99.90;;;;;;5014460;28;20558;-71
2021/03/16 07:12:05;;;;;;;73.80;69.90;;;6.90;99.90;;;;;;4998874;28;20365;-71
2021/03/16 07:14:32;;;;;;;66.47;63.03;;;6.90;99.90;;;;;;5000910;28;20493;-71
2021/03/16 07:17:01;;;;;;;75.22;71.15;;;7.00;99.90;;;;;;5003360;28;20546;-70
2021/03/16 07:19:30;;;;;;;75.00;70.82;;;7.00;99.90;;;;;;5004669;28;20186;-71
2021/03/16 07:21:57;;;;;;;73.10;69.28;;;7.00;99.90;;;;;;5006394;28;20045;-71
2021/03/16 07:24:28;;;;;;;71.68;67.97;;;7.10;99.90;;;;;;5006140;28;20073;-71
2021/03/16 07:26:58;;;;;;;75.97;71.95;;;7.10;99.90;;;;;;5003314;28;20042;-71
2021/03/16 07:29:25;;;;;;;81.68;77.47;;;7.10;99.90;;;;;;4995015;28;20053;-71
2021/03/16 07:32:03;;;;;;;86.05;81.82;;;7.20;99.90;;;;;;5005102;28;20078;-71
2021/03/16 07:34:30;;;;;;;92.30;87.25;;;7.20;99.90;;;;;;5002269;28;20099;-71
2021/03/16 07:36:57;;;;;;;97.78;93.18;;;7.20;99.90;;;;;;5000763;28;20056;-71
2021/03/16 07:39:25;;;;;;;104.10;98.53;;;7.20;99.90;;;;;;5006401;28;20054;-71
2021/03/16 07:41:52;;;;;;;105.30;100.00;;;7.20;99.90;;;;;;4998656;28;20098;-71
2021/03/16 07:44:19;;;;;;;107.05;101.47;;;7.20;99.90;;;;;;4997666;28;20132;-71
2021/03/16 07:46:58;;;;;;;100.55;95.35;;;7.20;99.90;;;;;;4999214;28;20089;-71
2021/03/16 07:49:32;;;;;;;90.18;85.55;;;7.20;99.90;;;;;;5002462;28;20469;-71
2021/03/16 07:52:00;;;;;;;96.15;91.00;;;7.20;99.90;;;;;;4999059;28;20085;-71
2021/03/16 07:54:37;;;;;;;77.07;73.05;;;7.20;99.90;;;;;;4999343;28;20064;-71
2021/03/16 07:57:05;;;;;;;94.07;89.35;;;7.20;99.90;;;;;;4998379;28;20128;-71
2021/03/16 07:59:36;;;;;;;98.63;93.28;;;7.20;99.90;;;;;;5001117;28;20062;-71
2021/03/16 08:02:04;;;;;;;105.53;99.97;;;7.20;99.90;;;;;;4999139;28;20046;-71
2021/03/16 08:04:40;;;;;;;108.20;102.57;;;7.30;99.90;;;;;;4999730;28;20843;-71
2021/03/16 08:07:12;;;;;;;83.38;79.15;;;7.30;99.90;;;;;;5004529;28;20136;-71
2021/03/16 08:09:46;;;;;;;83.72;79.40;;;7.30;99.90;;;;;;4999081;28;20073;-71
2021/03/16 08:12:20;;;;;;;77.45;73.28;;;7.30;99.90;;;;;;5007286;28;20134;-71
2021/03/16 08:14:47;;;;;;;80.95;76.60;;;7.30;99.90;;;;;;5009533;28;20053;-72
2021/03/16 08:17:29;;;;;;;86.03;81.65;;;7.30;99.90;;;;;;5016056;28;20048;-71
2021/03/16 08:19:56;;;;;;;94.88;90.20;;;7.30;99.90;;;;;;5009769;28;20414;-71
2021/03/16 08:22:24;;;;;;;99.80;94.60;;;7.20;99.90;;;;;;5007008;28;20057;-71
2021/03/16 08:25:04;;;;;;;96.53;91.70;;;7.30;99.90;;;;;;5012944;28;20042;-71
2021/03/16 08:27:33;;;;;;;94.43;89.60;;;7.30;99.90;;;;;;5005415;28;20064;-71
2021/03/16 08:29:59;;;;;;;94.43;89.50;;;7.40;99.90;;;;;;5005439;28;20045;-71
2021/03/16 08:32:25;;;;;;;92.65;87.88;;;7.40;99.90;;;;;;5010590;28;20363;-71
2021/03/16 08:34:54;;;;;;;114.32;107.93;;;7.50;99.90;;;;;;5003866;28;20374;-72
2021/03/16 08:37:36;;;;;;;86.53;81.47;;;7.50;99.90;;;;;;4999627;28;20055;-71
2021/03/16 08:40:24;;;;;;;95.38;89.95;;;7.60;99.90;;;;;;5006711;28;20050;-70
2021/03/16 08:42:50;;;;;;;109.28;103.38;;;7.70;99.90;;;;;;5006302;28;20188;-71
2021/03/16 08:45:37;;;;;;;113.78;107.55;;;7.80;99.90;;;;;;5004072;28;20058;-71
2021/03/16 08:48:04;;;;;;;103.25;97.65;;;7.80;99.90;;;;;;5005185;28;20072;-71
2021/03/16 08:50:31;;;;;;;123.88;117.35;;;7.80;99.90;;;;;;5008736;28;20160;-70
2021/03/16 08:52:58;;;;;;;121.78;115.35;;;7.90;99.90;;;;;;5002581;28;20608;-70
2021/03/16 08:55:29;;;;;;;126.85;120.40;;;7.90;99.90;;;;;;5005547;28;20048;-70
2021/03/16 08:57:56;;;;;;;69.45;65.78;;;7.90;99.90;;;;;;5003783;28;20042;-71
2021/03/16 09:00:25;;;;;;;69.78;66.28;;;7.90;99.90;;;;;;5001445;28;20481;-70
2021/03/16 09:02:52;;;;;;;73.18;69.25;;;7.90;99.90;;;;;;5008117;28;20447;-70
2021/03/16 09:05:25;;;;;;;64.55;60.88;;;8.00;99.90;;;;;;5000483;28;20048;-70
2021/03/16 09:07:58;;;;;;;84.75;80.13;;;8.00;99.90;;;;;;5002206;28;20173;-70
2021/03/16 09:10:24;;;;;;;97.05;91.55;;;8.10;99.90;;;;;;5008106;28;20121;-71
2021/03/16 09:12:51;;;;;;;104.28;98.25;;;8.10;99.90;;;;;;5007485;28;20269;-71
2021/03/16 09:15:26;;;;;;;125.18;118.20;;;8.10;99.90;;;;;;5003337;28;20054;-71
2021/03/16 09:18:03;;;;;;;114.18;107.53;;;8.20;99.90;;;;;;4999321;28;20048;-71
2021/03/16 09:20:30;;;;;;;124.40;117.63;;;8.20;99.90;;;;;;5000833;28;20405;-71
2021/03/16 09:23:03;;;;;;;134.07;126.47;;;8.20;99.90;;;;;;5003283;28;20064;-71
2021/03/16 09:25:40;;;;;;;159.15;150.25;;;8.20;99.90;;;;;;5009961;28;20057;-72
2021/03/16 09:28:09;;;;;;;160.75;151.77;;;8.20;99.90;;;;;;5006198;28;20076;-70
2021/03/16 09:30:53;;;;;;;151.85;142.93;;;8.20;99.90;;;;;;4998531;28;20132;-70
2021/03/16 09:33:23;;;;;;;80.88;76.53;;;8.20;99.90;;;;;;5001124;28;20042;-70
2021/03/16 09:35:57;;;;;;;84.70;80.07;;;8.10;99.90;;;;;;5002126;28;20174;-71
2021/03/16 09:38:24;;;;;;;71.95;68.35;;;8.10;99.90;;;;;;5006391;28;20057;-70
2021/03/16 09:40:51;;;;;;;66.95;63.72;;;8.10;99.90;;;;;;4997125;28;20045;-70
2021/03/16 09:43:34;;;;;;;78.50;74.75;;;8.10;99.90;;;;;;4999594;28;20041;-70
2021/03/16 09:46:04;;;;;;;70.25;66.50;;;8.00;99.90;;;;;;4999997;28;20050;-70
2021/03/16 09:48:32;;;;;;;85.30;80.68;;;8.00;99.90;;;;;;5099546;27;20844;-70
2021/03/16 09:51:08;;;;;;;87.82;82.45;;;8.00;99.90;;;;;;4998151;28;20056;-70
2021/03/16 09:53:34;;;;;;;87.43;82.72;;;8.00;99.90;;;;;;5002848;28;20052;-70
2021/03/16 09:56:03;;;;;;;67.72;64.35;;;8.00;99.90;;;;;;4999078;28;20046;-70
2021/03/16 09:58:30;;;;;;;74.90;71.22;;;8.00;99.90;;;;;;5004259;28;20145;-70
2021/03/16 10:01:02;;;;;;;77.30;73.63;;;7.90;99.90;;;;;;5000237;28;20046;-70
2021/03/16 10:03:29;;;;;;;95.55;90.65;;;7.90;99.90;;;;;;5004655;28;20054;-70
2021/03/16 10:06:06;;;;;;;92.97;88.50;;;7.90;99.90;;;;;;5007357;28;20129;-70
2021/03/16 10:08:34;;;;;;;92.43;87.72;;;7.80;99.90;;;;;;5001152;28;20060;-70
2021/03/16 10:11:01;;;;;;;88.85;84.55;;;7.80;99.90;;;;;;5000215;28;20497;-70
2021/03/16 10:13:39;;;;;;;82.97;78.65;;;7.70;99.90;;;;;;5003382;28;20077;-70
2021/03/16 10:16:09;;;;;;;76.35;72.53;;;7.70;99.90;;;;;;4997232;28;20054;-70
2021/03/16 10:18:41;;;;;;;75.38;71.50;;;7.70;99.90;;;;;;5007690;28;20038;-70
2021/03/16 10:21:08;;;;;;;89.88;85.22;;;7.80;99.90;;;;;;4997977;28;20604;-70
2021/03/16 10:23:34;;;;;;;83.22;78.80;;;7.90;99.90;;;;;;4996819;28;20477;-70
2021/03/16 10:26:04;;;;;;;78.63;74.75;;;8.00;99.90;;;;;;5004998;28;21531;-70
2021/03/16 10:28:35;;;;;;;86.75;82.13;;;8.10;99.90;;;;;;4999194;28;20050;-70
2021/03/16 10:31:21;;;;;;;90.03;85.60;;;8.10;99.90;;;;;;5001355;28;20078;-70
2021/03/16 10:33:53;;;;;;;87.60;83.28;;;8.20;99.90;;;;;;5009368;28;20698;-70
2021/03/16 10:36:21;;;;;;;78.63;74.78;;;8.30;99.90;;;;;;5007318;28;20060;-70
2021/03/16 10:38:49;;;;;;;74.25;70.53;;;8.40;99.90;;;;;;5001465;28;20099;-70
2021/03/16 10:41:17;;;;;;;64.85;61.38;;;8.50;99.90;;;;;;4997503;28;20054;-70
2021/03/16 10:43:43;;;;;;;58.88;55.95;;;8.50;99.90;;;;;;5001314;28;20107;-70
2021/03/16 10:46:10;;;;;;;55.58;52.78;;;8.60;99.90;;;;;;5001621;28;20045;-70
2021/03/16 10:48:37;;;;;;;54.72;52.03;;;8.60;99.90;;;;;;4996110;28;20049;-69
2021/03/16 10:51:04;;;;;;;67.07;63.75;;;8.70;99.90;;;;;;5000549;28;20043;-70
2021/03/16 10:53:31;;;;;;;50.10;47.60;;;8.70;99.90;;;;;;5008185;28;20178;-70
2021/03/16 10:56:04;;;;;;;54.88;52.08;;;8.70;99.90;;;;;;4996529;28;20073;-70
2021/03/16 10:58:31;;;;;;;53.13;50.53;;;8.70;99.90;;;;;;4997232;28;20094;-70
2021/03/16 11:00:57;;;;;;;50.75;47.92;;;8.70;99.90;;;;;;4999818;28;20058;-70
2021/03/16 11:03:35;;;;;;;45.85;43.38;;;8.80;99.90;;;;;;4996561;28;20350;-70
2021/03/16 11:06:02;;;;;;;46.25;44.00;;;8.70;99.90;;;;;;5002951;28;20042;-70
2021/03/16 11:08:29;;;;;;;46.58;44.20;;;8.80;99.90;;;;;;5003137;28;20054;-70
2021/03/16 11:10:56;;;;;;;47.17;44.65;;;8.80;99.90;;;;;;5000842;28;20054;-70
2021/03/16 11:13:22;;;;;;;47.50;45.03;;;8.70;99.90;;;;;;5005215;28;20141;-70
2021/03/16 11:15:48;;;;;;;50.13;47.45;;;8.60;99.90;;;;;;5000058;28;20077;-70
2021/03/16 11:18:17;;;;;;;48.95;46.50;;;8.60;99.90;;;;;;4997469;28;20050;-70
2021/03/16 11:20:43;;;;;;;47.80;45.13;;;8.50;99.90;;;;;;4999856;28;20057;-70
2021/03/16 11:23:10;;;;;;;55.10;52.28;;;8.50;99.90;;;;;;4999077;28;20041;-71
2021/03/16 11:25:36;;;;;;;83.47;79.28;;;8.50;99.90;;;;;;5005583;28;20046;-70
2021/03/16 11:28:03;;;;;;;38.97;36.78;;;8.50;99.90;;;;;;5007531;28;20048;-71
2021/03/16 11:30:31;;;;;;;68.47;64.80;;;8.60;99.90;;;;;;5000852;28;20495;-71
2021/03/16 11:32:58;;;;;;;60.78;57.58;;;8.60;99.90;;;;;;5001645;28;20040;-70
2021/03/16 11:35:24;;;;;;;37.20;35.15;;;8.60;99.90;;;;;;4997555;28;20361;-70
2021/03/16 11:37:51;;;;;;;35.42;33.45;;;8.50;99.90;;;;;;4997753;28;20053;-70
2021/03/16 11:40:17;;;;;;;28.35;26.85;;;8.40;99.90;;;;;;5002913;28;20053;-70
2021/03/16 11:42:43;;;;;;;29.45;27.90;;;8.20;99.90;;;;;;4996258;28;20042;-71
2021/03/16 11:45:10;;;;;;;38.08;36.10;;;8.10;99.90;;;;;;4997729;28;20054;-70
2021/03/16 11:47:36;;;;;;;44.47;42.28;;;8.00;99.90;;;;;;4996833;28;20049;-70
2021/03/16 11:50:04;;;;;;;38.22;36.22;;;8.00;99.90;;;;;;5005111;28;20121;-70
2021/03/16 11:52:30;;;;;;;52.28;49.58;;;7.90;99.90;;;;;;5000564;28;20182;-70
2021/03/16 11:54:57;;;;;;;68.85;65.47;;;7.80;99.90;;;;;;4996902;28;20206;-71
2021/03/16 11:57:23;;;;;;;70.43;66.90;;;7.80;99.90;;;;;;5002741;28;20057;-70
2021/03/16 11:59:50;;;;;;;75.80;71.97;;;7.80;99.90;;;;;;5003206;28;20425;-70
2021/03/16 12:02:16;;;;;;;87.22;82.80;;;7.80;99.90;;;;;;4999912;28;20377;-70
2021/03/16 12:04:43;;;;;;;117.57;111.40;;;7.90;99.90;;;;;;4998242;28;20050;-70
2021/03/16 12:07:09;;;;;;;81.70;77.68;;;7.90;99.90;;;;;;4999697;28;20054;-70
2021/03/16 12:09:45;;;;;;;79.20;75.40;;;8.00;99.90;;;;;;5004543;28;20043;-69
2021/03/16 12:12:13;;;;;;;144.15;136.63;;;8.10;99.90;;;;;;4997159;28;20066;-70
2021/03/16 12:14:39;;;;;;;189.40;179.13;;;8.20;99.90;;;;;;5003830;28;20097;-70
2021/03/16 12:17:05;;;;;;;123.45;117.28;;;8.20;99.90;;;;;;5001165;28;20050;-70
2021/03/16 12:19:32;;;;;;;128.88;122.30;;;8.10;99.90;;;;;;5002087;28;20446;-70
2021/03/16 12:21:58;;;;;;;121.53;115.57;;;8.00;99.90;;;;;;4998451;28;20050;-70
2021/03/16 12:24:24;;;;;;;116.35;110.47;;;8.00;99.90;;;;;;5006451;28;20050;-70
2021/03/16 12:26:50;;;;;;;118.45;112.18;;;7.90;99.90;;;;;;4999375;28;20050;-70
2021/03/16 12:29:16;;;;;;;131.40;124.05;;;7.90;99.90;;;;;;5000822;28;20042;-70
2021/03/16 12:31:43;;;;;;;121.43;115.15;;;7.90;99.90;;;;;;4999676;28;20145;-70
2021/03/16 12:34:09;;;;;;;128.73;122.07;;;7.90;99.90;;;;;;5002481;28;20448;-71
2021/03/16 12:36:36;;;;;;;134.15;127.35;;;7.80;99.90;;;;;;5000657;28;20057;-70
2021/03/16 12:39:02;;;;;;;138.65;131.68;;;7.80;99.90;;;;;;5001628;28;20060;-69
2021/03/16 12:41:29;;;;;;;144.73;137.45;;;7.80;99.90;;;;;;4996276;28;20145;-70
2021/03/16 12:43:55;;;;;;;151.02;143.27;;;7.80;99.90;;;;;;5002986;28;20124;-69